Time;durP1;ratioP1;P1;durP2;ratioP2;P2;SDS_P1;SDS_P2;PMS_P1;PMS_P2;Temp;Humidity;BMP_temperature;BMP_pressure;BME280_temperature;BME280_humidity;BME280_pressure;Samples;Min_cycle;Max_cycle;Signal;HPM_P1;HPM_P2
2021/04/29 00:01:24;;;;;;;8.63;5.43;;;;;;;10.32;78.93;94890.72;5049769;28;20091;-79
2021/04/29 00:03:49;;;;;;;13.00;5.73;;;;;;;10.30;79.06;94889.31;5046696;28;20530;-78
2021/04/29 00:06:15;;;;;;;8.73;5.90;;;;;;;10.31;78.78;94890.91;5053484;28;20104;-77
2021/04/29 00:08:41;;;;;;;10.93;5.70;;;;;;;10.32;78.74;94889.91;5060543;28;20498;-78
2021/04/29 00:11:08;;;;;;;8.17;5.80;;;;;;;10.32;79.12;94887.28;5067048;28;20012;-78
2021/04/29 00:13:34;;;;;;;8.73;5.83;;;;;;;10.30;79.35;94899.81;5052523;28;20036;-78
2021/04/29 00:16:01;;;;;;;9.47;5.47;;;;;;;10.27;79.63;94902.81;5057315;28;20068;-79
2021/04/29 00:18:26;;;;;;;9.40;5.83;;;;;;;10.30;79.34;94899.81;5050928;28;20104;-77
2021/04/29 00:20:55;;;;;;;7.97;5.60;;;;;;;10.30;80.66;94907.69;5062653;28;20042;-79
2021/04/29 00:23:26;;;;;;;8.70;6.20;;;;;;;10.25;79.76;94902.16;5050511;28;20502;-78
2021/04/29 00:25:52;;;;;;;9.80;5.33;;;;;;;10.28;80.15;94902.63;5063981;28;20501;-78
2021/04/29 00:28:18;;;;;;;10.33;6.23;;;;;;;10.27;79.68;94902.81;5059616;28;20021;-78
2021/04/29 00:30:44;;;;;;;11.60;6.70;;;;;;;10.25;80.36;94899.53;5057310;28;20040;-77
2021/04/29 00:33:10;;;;;;;9.73;6.10;;;;;;;10.23;81.16;94905.00;5051614;28;20028;-78
2021/04/29 00:35:35;;;;;;;10.00;5.60;;;;;;;10.26;81.16;94898.56;5055819;28;20036;-78
2021/04/29 00:38:02;;;;;;;10.40;5.07;;;;;;;10.29;81.12;94900.81;5066891;28;20056;-77
2021/04/29 00:40:28;;;;;;;9.27;5.47;;;;;;;10.32;80.72;94897.78;5050319;28;20640;-78
2021/04/29 00:42:53;;;;;;;10.23;6.77;;;;;;;10.32;81.02;94893.34;5068996;28;20063;-77
2021/04/29 00:45:19;;;;;;;8.87;5.33;;;;;;;10.22;81.43;94898.09;5068603;28;20029;-79
2021/04/29 00:47:49;;;;;;;9.60;5.53;;;;;;;10.14;82.23;94891.16;5068355;28;20662;-77
2021/04/29 00:50:16;;;;;;;8.33;5.70;;;;;;;10.10;82.71;94894.38;5052474;28;20032;-78
2021/04/29 00:52:41;;;;;;;7.67;5.30;;;;;;;10.09;82.53;94898.81;5059889;28;20028;-78
2021/04/29 00:55:08;;;;;;;11.63;6.17;;;;;;;10.17;83.38;94902.31;5060049;28;20029;-76
2021/04/29 00:57:34;;;;;;;9.93;5.93;;;;;;;10.21;83.17;94893.03;5049317;28;20106;-78
2021/04/29 01:00:00;;;;;;;8.60;5.63;;;;;;;10.23;83.41;94901.53;5046668;28;20040;-77
2021/04/29 01:02:27;;;;;;;11.70;5.50;;;;;;;10.30;83.14;94899.81;5049122;28;20028;-77
2021/04/29 01:05:08;;;;;;;8.00;4.83;;;;;;;10.27;82.55;94901.00;5044123;28;20029;-77
2021/04/29 01:07:40;;;;;;;7.90;4.53;;;;;;;10.22;83.17;94905.16;5049545;28;20033;-78
2021/04/29 01:10:32;;;;;;;6.20;3.93;;;;;;;10.17;83.70;94902.31;5082585;28;20033;-78
2021/04/29 01:13:21;;;;;;;7.67;4.53;;;;;;;10.27;83.06;94894.94;5041595;28;20399;-77
2021/04/29 01:15:48;;;;;;;6.70;4.47;;;;;;;10.23;82.94;94894.47;5060663;28;20021;-78
2021/04/29 01:18:15;;;;;;;7.47;4.33;;;;;;;10.17;83.74;94891.78;5060370;28;20165;-77
2021/04/29 01:20:57;;;;;;;11.13;4.50;;;;;;;10.18;84.23;94890.78;5058173;28;20064;-78
2021/04/29 01:23:41;;;;;;;8.00;4.40;;;;;;;10.18;84.37;94890.78;5048678;28;20106;-77
2021/04/29 01:26:31;;;;;;;7.70;4.67;;;;;;;10.15;84.24;94887.53;5058011;28;20382;-77
2021/04/29 01:28:59;;;;;;;6.13;4.47;;;;;;;10.10;84.85;94894.38;5024373;28;20045;-79
2021/04/29 01:31:29;;;;;;;7.63;4.50;;;;;;;10.13;85.44;94892.16;5055935;28;20052;-78
2021/04/29 01:33:58;;;;;;;8.57;4.13;;;;;;;10.05;85.05;94894.91;5046005;28;20560;-77
2021/04/29 01:36:26;;;;;;;8.23;4.43;;;;;;;10.08;85.34;94901.59;5048176;28;20032;-78
2021/04/29 01:38:52;;;;;;;9.13;4.50;;;;;;;10.10;84.28;94899.63;5057282;28;20413;-77
2021/04/29 01:41:18;;;;;;;6.33;3.97;;;;;;;10.07;84.83;94900.00;5054856;28;20025;-78
2021/04/29 01:43:45;;;;;;;7.83;4.53;;;;;;;10.04;84.75;94901.19;5060317;28;20033;-78
2021/04/29 01:46:10;;;;;;;6.43;3.63;;;;;;;10.02;85.07;94907.59;5051274;28;20538;-77
2021/04/29 01:48:37;;;;;;;5.90;3.97;;;;;;;9.98;84.97;94907.19;5045781;28;20546;-78
2021/04/29 01:51:03;;;;;;;7.57;3.27;;;;;;;9.97;85.21;94908.19;5053619;28;20033;-77
2021/04/29 01:53:30;;;;;;;6.80;3.90;;;;;;;10.02;85.12;94905.78;5051362;28;20025;-77
2021/04/29 01:55:56;;;;;;;8.97;3.73;;;;;;;10.03;84.51;94910.06;5049962;28;20032;-78
2021/04/29 01:58:22;;;;;;;6.00;3.80;;;;;;;10.01;84.43;94909.44;5054168;28;20040;-78
2021/04/29 02:00:49;;;;;;;6.47;3.27;;;;;;;10.08;84.50;94912.13;5050882;28;20109;-77
2021/04/29 02:03:15;;;;;;;3.93;2.47;;;;;;;10.03;84.75;94909.25;5048849;28;20033;-77
2021/04/29 02:05:41;;;;;;;5.73;2.60;;;;;;;10.15;84.05;94918.25;5061748;28;20037;-78
2021/04/29 02:08:07;;;;;;;5.83;3.00;;;;;;;10.10;83.74;94921.44;5047384;28;20090;-78
2021/04/29 02:10:33;;;;;;;4.67;2.57;;;;;;;10.06;83.72;94914.09;5042160;28;20079;-78
2021/04/29 02:13:00;;;;;;;10.27;3.93;;;;;;;10.08;83.91;94918.19;5068066;28;20059;-78
2021/04/29 02:15:32;;;;;;;4.97;2.53;;;;;;;10.13;83.53;94909.75;5068236;28;20025;-78
2021/04/29 02:18:10;;;;;;;4.20;2.33;;;;;;;10.20;82.44;94915.06;5056721;28;20119;-77
2021/04/29 02:20:44;;;;;;;5.37;2.40;;;;;;;10.21;83.20;94912.22;5050983;28;20082;-77
2021/04/29 02:23:13;;;;;;;5.00;2.60;;;;;;;10.23;82.45;94917.28;5049342;28;20102;-77
2021/04/29 02:25:41;;;;;;;5.43;2.63;;;;;;;10.21;83.03;94921.94;5047291;28;21131;-77
2021/04/29 02:28:07;;;;;;;3.97;2.40;;;;;;;10.14;83.27;94917.44;5040845;28;20032;-77
2021/04/29 02:30:33;;;;;;;4.17;2.40;;;;;;;10.20;83.08;94925.56;5040721;28;20017;-77
2021/04/29 02:33:00;;;;;;;4.50;2.03;;;;;;;10.21;83.15;94924.56;5051987;28;20552;-77
2021/04/29 02:35:27;;;;;;;3.73;2.20;;;;;;;10.14;82.92;94929.75;5057855;28;20055;-77
2021/04/29 02:37:54;;;;;;;4.13;2.30;;;;;;;10.09;83.59;94927.72;5054563;28;20065;-78
2021/04/29 02:40:22;;;;;;;6.33;2.90;;;;;;;10.09;83.54;94930.34;5058104;28;20033;-78
2021/04/29 02:42:48;;;;;;;4.37;2.70;;;;;;;10.04;83.78;94934.50;5052533;28;20037;-78
2021/04/29 02:45:16;;;;;;;5.37;2.40;;;;;;;9.99;84.32;94935.06;5050505;28;20581;-77
2021/04/29 02:47:47;;;;;;;4.57;2.33;;;;;;;9.89;84.66;94940.63;5073113;28;20032;-78
2021/04/29 02:50:15;;;;;;;3.67;2.17;;;;;;;10.00;84.32;94947.22;5050731;28;20086;-78
2021/04/29 02:52:44;;;;;;;4.33;2.30;;;;;;;9.91;84.49;94948.31;5046930;28;20037;-78
2021/04/29 02:55:10;;;;;;;3.93;2.23;;;;;;;9.92;84.81;94947.31;5048941;28;20121;-78
2021/04/29 02:57:36;;;;;;;6.03;2.70;;;;;;;9.92;84.88;94949.94;5049948;28;20071;-77
2021/04/29 03:00:05;;;;;;;3.60;2.30;;;;;;;9.91;85.54;94951.75;5051607;28;20635;-78
2021/04/29 03:02:31;;;;;;;4.40;2.40;;;;;;;9.92;84.96;94949.94;5056970;28;20466;-78
2021/04/29 03:04:56;;;;;;;4.23;2.63;;;;;;;9.84;85.83;94956.13;5069747;28;20051;-77
2021/04/29 03:07:22;;;;;;;4.70;2.63;;;;;;;9.89;85.94;94953.78;5049971;28;20636;-77
2021/04/29 03:09:48;;;;;;;5.63;3.30;;;;;;;9.88;86.24;94956.56;5055717;28;20064;-77
2021/04/29 03:12:13;;;;;;;7.40;3.70;;;;;;;9.92;86.05;94960.44;5051330;28;20074;-77
2021/04/29 03:14:39;;;;;;;8.63;3.53;;;;;;;9.87;87.17;94955.75;5057846;28;20035;-76
2021/04/29 03:17:07;;;;;;;5.87;3.83;;;;;;;9.85;87.29;94964.81;5052233;28;20113;-78
2021/04/29 03:19:32;;;;;;;6.93;4.13;;;;;;;9.89;87.28;94966.06;5055004;28;20040;-78
2021/04/29 03:21:58;;;;;;;6.63;4.20;;;;;;;9.82;87.92;94971.25;5045423;28;20025;-76
2021/04/29 03:24:23;;;;;;;7.07;4.37;;;;;;;9.86;88.35;94969.09;5059146;28;20794;-78
2021/04/29 03:26:49;;;;;;;13.10;4.07;;;;;;;9.81;88.17;94974.06;5058846;28;20064;-78
2021/04/29 03:29:15;;;;;;;6.87;3.47;;;;;;;9.83;87.54;94966.84;5060106;28;20516;-78
2021/04/29 03:31:40;;;;;;;5.77;3.47;;;;;;;9.79;87.54;94973.44;5048026;28;20629;-78
2021/04/29 03:34:06;;;;;;;5.13;3.40;;;;;;;9.75;87.23;94966.94;5061186;28;20606;-77
2021/04/29 03:36:32;;;;;;;5.30;3.30;;;;;;;9.77;87.35;94962.31;5048355;28;20594;-77
2021/04/29 03:38:58;;;;;;;4.93;3.13;;;;;;;9.68;87.15;94970.28;5050110;28;20044;-77
2021/04/29 03:41:23;;;;;;;5.27;3.00;;;;;;;9.68;86.75;94975.53;5064629;28;20077;-78
2021/04/29 03:43:49;;;;;;;6.47;3.20;;;;;;;9.79;86.25;94973.44;5061326;28;20033;-77
2021/04/29 03:46:15;;;;;;;6.80;2.97;;;;;;;9.73;86.32;94972.38;5051908;28;20040;-77
2021/04/29 03:48:40;;;;;;;6.17;2.50;;;;;;;9.76;85.39;94966.75;5064494;28;20037;-78
2021/04/29 03:51:06;;;;;;;4.37;1.90;;;;;;;9.76;85.20;94985.13;5054992;28;20020;-77
2021/04/29 03:53:32;;;;;;;6.23;2.03;;;;;;;9.77;85.18;94980.69;5068095;28;20068;-78
2021/04/29 03:55:58;;;;;;;4.90;2.80;;;;;;;9.70;85.29;94980.63;5046868;28;20045;-77
2021/04/29 03:58:24;;;;;;;3.63;2.43;;;;;;;9.76;85.33;94992.16;5068990;28;20090;-78
2021/04/29 04:00:50;;;;;;;5.30;1.87;;;;;;;9.71;85.52;94987.47;5048190;28;20555;-77
2021/04/29 04:03:16;;;;;;;4.30;1.73;;;;;;;9.64;85.87;94992.66;5054894;28;20025;-77
2021/04/29 04:05:42;;;;;;;5.53;2.17;;;;;;;9.68;85.62;94995.72;5060291;28;20346;-78
2021/04/29 04:08:07;;;;;;;3.30;2.00;;;;;;;9.65;86.00;95012.66;5059439;28;20033;-76
2021/04/29 04:10:33;;;;;;;4.67;2.20;;;;;;;9.57;87.04;95007.50;5054181;28;20112;-77
2021/04/29 04:12:59;;;;;;;5.43;2.20;;;;;;;9.56;87.40;95012.97;5052176;28;20542;-78
2021/04/29 04:15:24;;;;;;;5.23;2.00;;;;;;;9.55;87.69;95024.44;5068502;28;20528;-77
2021/04/29 04:17:50;;;;;;;3.43;1.70;;;;;;;9.52;86.82;95033.47;5063926;28;20040;-78
2021/04/29 04:20:16;;;;;;;4.03;2.30;;;;;;;9.45;87.57;95046.50;5064654;28;20032;-77
2021/04/29 04:22:42;;;;;;;2.33;1.30;;;;;;;9.49;85.78;95052.25;5052535;28;20037;-78
2021/04/29 04:25:08;;;;;;;2.40;1.40;;;;;;;9.43;86.97;95050.34;5061718;28;20035;-78
2021/04/29 04:27:35;;;;;;;2.70;1.13;;;;;;;9.43;86.60;95058.22;5062742;28;20040;-78
2021/04/29 04:30:00;;;;;;;2.77;1.47;;;;;;;9.36;87.10;95058.13;5058788;28;20060;-78
2021/04/29 04:32:26;;;;;;;2.13;1.20;;;;;;;9.37;86.22;95064.16;5056267;28;20154;-78
2021/04/29 04:34:52;;;;;;;1.30;1.00;;;;;;;9.34;86.34;95072.41;5048923;28;20115;-79
2021/04/29 04:37:18;;;;;;;4.47;1.57;;;;;;;9.39;86.63;95067.44;5062871;28;20039;-78
2021/04/29 04:39:43;;;;;;;2.07;1.30;;;;;;;9.28;86.83;95083.59;5062824;28;20060;-77
2021/04/29 04:42:11;;;;;;;2.03;1.33;;;;;;;9.24;86.80;95082.34;5068386;28;20039;-77
2021/04/29 04:44:37;;;;;;;2.87;1.70;;;;;;;9.24;87.47;95098.88;5057042;28;20025;-78
2021/04/29 04:47:03;;;;;;;4.60;2.70;;;;;;;9.22;87.71;95106.09;5056291;28;20049;-78
2021/04/29 04:49:32;;;;;;;5.47;2.60;;;;;;;9.23;86.26;95112.19;5040542;28;20029;-78
2021/04/29 04:51:58;;;;;;;1.97;1.37;;;;;;;9.24;85.59;95121.69;5060024;28;20040;-77
2021/04/29 04:54:26;;;;;;;4.00;2.07;;;;;;;9.14;84.51;95119.31;5063365;28;20457;-78
2021/04/29 04:56:51;;;;;;;5.30;1.67;;;;;;;9.08;84.74;95139.19;5064422;28;20029;-78
2021/04/29 04:59:17;;;;;;;4.63;2.67;;;;;;;9.06;84.21;95140.38;5053969;28;20508;-78
2021/04/29 05:01:43;;;;;;;3.93;2.07;;;;;;;9.12;83.93;95142.28;5062176;28;20033;-76
2021/04/29 05:04:09;;;;;;;4.03;2.20;;;;;;;9.14;83.69;95133.25;5080206;28;20016;-78
2021/04/29 05:06:35;;;;;;;2.83;1.70;;;;;;;9.27;83.11;95134.44;5071703;28;20491;-78
2021/04/29 05:09:02;;;;;;;3.97;2.30;;;;;;;9.34;82.72;95132.75;5066046;28;20028;-78
2021/04/29 05:11:28;;;;;;;4.00;2.30;;;;;;;9.46;81.48;95136.56;5054715;28;20036;-77
2021/04/29 05:13:54;;;;;;;4.23;2.50;;;;;;;9.48;81.62;95141.63;5066153;28;20039;-77
2021/04/29 05:16:19;;;;;;;4.63;2.60;;;;;;;9.34;82.26;95149.28;5052187;28;20044;-78
2021/04/29 05:18:45;;;;;;;3.03;2.23;;;;;;;9.23;82.16;95143.69;5053403;28;20124;-78
2021/04/29 05:21:11;;;;;;;5.37;2.53;;;;;;;9.24;82.31;95146.09;5054808;28;20036;-78
2021/04/29 05:23:37;;;;;;;4.20;2.30;;;;;;;9.37;81.11;95140.25;5050557;28;20115;-77
2021/04/29 05:26:03;;;;;;;6.33;2.43;;;;;;;9.51;80.51;95149.16;5060437;28;20032;-78
2021/04/29 05:28:28;;;;;;;5.23;2.90;;;;;;;9.53;81.21;95160.28;5055948;28;20032;-78
2021/04/29 05:30:54;;;;;;;4.30;2.10;;;;;;;9.63;80.45;95166.09;5053656;28;20044;-78
2021/04/29 05:33:20;;;;;;;5.80;2.60;;;;;;;9.68;80.29;95169.78;5059496;28;20388;-78
2021/04/29 05:35:45;;;;;;;4.30;2.50;;;;;;;10.02;79.70;95176.31;5051592;28;20043;-77
2021/04/29 05:38:11;;;;;;;4.70;2.13;;;;;;;9.86;80.12;95176.53;5065952;28;20032;-78
2021/04/29 05:40:37;;;;;;;3.67;2.13;;;;;;;10.00;80.00;95169.66;5054011;28;20040;-77
2021/04/29 05:43:03;;;;;;;3.27;1.90;;;;;;;10.38;78.12;95173.78;5053060;28;20021;-78
2021/04/29 05:45:28;;;;;;;4.07;2.50;;;;;;;10.51;77.35;95177.59;5064707;28;20396;-78
2021/04/29 05:47:54;;;;;;;4.93;2.00;;;;;;;10.32;77.69;95171.91;5051534;28;20040;-80
2021/04/29 05:50:20;;;;;;;3.43;2.00;;;;;;;10.49;77.97;95175.13;5050407;28;20028;-80
2021/04/29 05:52:45;;;;;;;5.67;2.27;;;;;;;10.72;76.81;95176.81;5053061;28;20024;-78
2021/04/29 05:55:14;;;;;;;3.83;2.10;;;;;;;10.49;77.99;95176.94;5064750;28;20111;-77
2021/04/29 05:57:40;;;;;;;6.20;2.20;;;;;;;10.49;78.86;95179.56;5069462;28;20029;-78
2021/04/29 06:00:07;;;;;;;3.57;1.83;;;;;;;10.38;77.94;95186.13;5055245;28;20040;-78
2021/04/29 06:02:42;;;;;;;5.10;2.00;;;;;;;10.23;78.59;95182.66;5058369;28;20033;-78
2021/04/29 06:05:10;;;;;;;5.60;2.17;;;;;;;10.21;79.68;95184.66;5053968;28;20028;-78
2021/04/29 06:07:36;;;;;;;3.93;2.03;;;;;;;10.20;78.34;95183.03;5051081;28;20035;-78
2021/04/29 06:10:02;;;;;;;3.40;1.70;;;;;;;10.60;77.54;95179.91;5063791;28;20021;-78
2021/04/29 06:12:28;;;;;;;4.97;1.83;;;;;;;10.86;76.36;95175.94;5069564;28;20027;-78
2021/04/29 06:14:54;;;;;;;4.70;2.30;;;;;;;11.26;75.12;95173.69;5047859;28;20140;-78
2021/04/29 06:17:20;;;;;;;4.23;1.70;;;;;;;12.11;72.98;95177.16;5053661;28;20100;-79
2021/04/29 06:19:45;;;;;;;4.30;2.20;;;;;;;12.26;72.77;95180.47;5064050;28;20036;-79
2021/04/29 06:22:11;;;;;;;2.67;1.67;;;;;;;11.79;73.46;95184.63;5063614;28;20645;-78
2021/04/29 06:24:37;;;;;;;3.57;1.50;;;;;;;11.50;73.33;95183.81;5061593;28;20453;-78
2021/04/29 06:27:02;;;;;;;2.73;1.60;;;;;;;11.17;74.25;95186.16;5074630;28;20385;-77
2021/04/29 06:29:28;;;;;;;2.80;1.53;;;;;;;11.14;75.93;95183.91;5069059;28;20112;-78
2021/04/29 06:31:54;;;;;;;3.67;1.70;;;;;;;11.18;75.83;95184.34;5048431;28;20083;-80
2021/04/29 06:34:20;;;;;;;3.07;1.70;;;;;;;11.09;75.49;95189.72;5050666;28;20033;-78
2021/04/29 06:36:45;;;;;;;3.60;1.73;;;;;;;11.28;75.19;95193.56;5061174;28;20028;-80
2021/04/29 06:39:12;;;;;;;2.60;1.70;;;;;;;11.43;74.66;95195.28;5049728;28;20025;-78
2021/04/29 06:41:37;;;;;;;4.83;1.97;;;;;;;11.65;74.49;95196.09;5050027;28;20031;-78
2021/04/29 06:44:04;;;;;;;4.63;1.87;;;;;;;11.45;74.89;95194.09;5070183;28;20036;-78
2021/04/29 06:46:30;;;;;;;5.13;2.20;;;;;;;11.75;74.67;95200.00;5070511;28;20013;-81
2021/04/29 06:48:56;;;;;;;3.37;1.73;;;;;;;11.66;74.18;95200.34;5059579;28;20040;-78
2021/04/29 06:51:22;;;;;;;4.03;2.07;;;;;;;11.66;74.28;95202.97;5045969;28;20078;-78
2021/04/29 06:53:48;;;;;;;5.10;2.20;;;;;;;11.61;72.95;95203.56;5058151;28;20509;-78
2021/04/29 06:56:13;;;;;;;3.67;1.90;;;;;;;11.94;71.49;95206.47;5054303;28;20481;-78
2021/04/29 06:58:39;;;;;;;4.73;2.00;;;;;;;12.07;71.61;95207.53;5046642;28;20063;-78
2021/04/29 07:01:07;;;;;;;3.30;1.87;;;;;;;11.72;73.37;95210.13;5052146;28;20017;-78
2021/04/29 07:03:33;;;;;;;3.20;1.80;;;;;;;11.75;73.58;95213.16;5048699;28;20033;-78
2021/04/29 07:05:58;;;;;;;3.57;2.00;;;;;;;11.98;73.09;95220.88;5062390;28;20035;-78
2021/04/29 07:08:24;;;;;;;3.50;2.00;;;;;;;12.02;71.31;95206.28;5050613;28;20024;-77
2021/04/29 07:10:50;;;;;;;4.37;2.27;;;;;;;12.02;71.45;95208.94;5051121;28;20108;-78
2021/04/29 07:13:16;;;;;;;3.83;2.00;;;;;;;11.99;71.45;95211.94;5058833;28;20717;-78
2021/04/29 07:15:42;;;;;;;3.70;2.10;;;;;;;11.75;72.51;95210.53;5048463;28;20029;-78
2021/04/29 07:18:09;;;;;;;5.83;2.70;;;;;;;11.64;72.70;95212.91;5049116;28;20050;-79
2021/04/29 07:20:36;;;;;;;5.10;2.50;;;;;;;11.73;72.44;95211.72;5049803;28;20094;-78
2021/04/29 07:23:04;;;;;;;4.93;2.23;;;;;;;11.60;70.91;95212.44;5064868;28;20086;-78
2021/04/29 07:25:30;;;;;;;5.00;2.70;;;;;;;11.41;70.36;95207.84;5047478;28;20041;-78
2021/04/29 07:27:56;;;;;;;4.67;2.67;;;;;;;12.24;68.10;95219.41;5047067;28;20504;-78
2021/04/29 07:30:22;;;;;;;4.87;2.33;;;;;;;12.89;64.56;95212.78;5052708;28;20554;-78
2021/04/29 07:32:48;;;;;;;3.60;2.23;;;;;;;13.40;62.57;95214.13;5060116;28;20032;-78
2021/04/29 07:35:14;;;;;;;5.33;2.40;;;;;;;13.71;61.47;95205.59;5049314;28;20086;-78
2021/04/29 07:37:39;;;;;;;5.97;2.50;;;;;;;14.76;58.46;95203.78;5053525;28;20044;-78
2021/04/29 07:40:06;;;;;;;4.50;2.50;;;;;;;15.13;56.76;95201.38;5049256;28;20021;-78
2021/04/29 07:42:32;;;;;;;4.47;2.40;;;;;;;15.66;55.41;95198.41;5049168;28;20037;-78
2021/04/29 07:44:58;;;;;;;5.33;2.73;;;;;;;15.39;55.89;95199.56;5057230;28;20031;-77
2021/04/29 07:47:23;;;;;;;5.40;2.67;;;;;;;15.87;55.48;95199.03;5054814;28;20024;-75
2021/04/29 07:49:49;;;;;;;6.40;3.03;;;;;;;15.37;54.65;95209.56;5069518;28;20130;-75
2021/04/29 07:52:15;;;;;;;5.07;2.83;;;;;;;16.63;52.26;95198.66;5062314;28;20043;-76
2021/04/29 07:54:41;;;;;;;7.67;3.27;;;;;;;16.80;50.23;95195.41;5056805;28;20500;-76
2021/04/29 07:57:07;;;;;;;5.80;3.37;;;;;;;14.79;55.02;95200.72;5072662;28;20128;-76
2021/04/29 07:59:33;;;;;;;6.40;3.60;;;;;;;14.51;56.51;95218.72;5055714;28;20104;-75
2021/04/29 08:01:58;;;;;;;6.60;3.27;;;;;;;14.47;56.89;95217.50;5060554;28;20035;-76
2021/04/29 08:04:24;;;;;;;5.60;2.90;;;;;;;13.76;59.25;95218.22;5057182;28;20529;-75
2021/04/29 08:06:50;;;;;;;6.90;3.80;;;;;;;13.75;59.12;95217.41;5047368;28;20075;-75
2021/04/29 08:09:16;;;;;;;6.83;3.43;;;;;;;13.78;58.53;95217.00;5049508;28;20490;-76
2021/04/29 08:11:42;;;;;;;6.10;3.37;;;;;;;13.80;59.58;95214.97;5048669;28;20036;-75
2021/04/29 08:14:08;;;;;;;6.60;3.40;;;;;;;14.01;58.39;95226.34;5055106;28;20017;-76
2021/04/29 08:16:34;;;;;;;6.83;3.67;;;;;;;14.34;56.61;95224.44;5049756;28;20036;-77
2021/04/29 08:18:59;;;;;;;7.47;3.17;;;;;;;14.75;55.66;95218.03;5065295;28;20033;-76
2021/04/29 08:21:25;;;;;;;10.17;4.63;;;;;;;16.19;52.07;95211.16;5054728;28;20095;-76
2021/04/29 08:23:51;;;;;;;7.33;3.50;;;;;;;17.09;51.02;95207.09;5051397;28;20499;-75
2021/04/29 08:26:17;;;;;;;9.63;4.33;;;;;;;17.32;48.16;95204.53;5053784;28;20040;-75
2021/04/29 08:28:43;;;;;;;6.77;4.33;;;;;;;18.47;44.68;95205.94;5048126;28;20149;-76
2021/04/29 08:31:09;;;;;;;7.70;3.80;;;;;;;17.41;47.34;95205.84;5062904;28;20024;-76
2021/04/29 08:33:35;;;;;;;9.17;5.07;;;;;;;16.83;48.51;95209.06;5057640;28;20448;-76
2021/04/29 08:36:00;;;;;;;7.37;4.07;;;;;;;17.60;46.75;95208.41;5054374;28;20485;-79
2021/04/29 08:38:26;;;;;;;8.87;4.27;;;;;;;17.31;46.62;95204.78;5059499;28;20069;-79
2021/04/29 08:40:52;;;;;;;8.00;4.60;;;;;;;17.60;45.55;95216.38;5056543;28;20044;-79
2021/04/29 08:43:19;;;;;;;7.70;4.80;;;;;;;16.06;50.32;95224.53;5051402;28;20021;-78
2021/04/29 08:45:45;;;;;;;6.37;3.83;;;;;;;15.87;49.49;95222.91;5053627;28;20033;-78
2021/04/29 08:48:22;;;;;;;7.90;4.17;;;;;;;15.25;50.88;95225.31;5071351;28;20100;-78
2021/04/29 08:50:50;;;;;;;7.97;4.63;;;;;;;15.46;50.55;95229.47;5064935;28;20043;-78
2021/04/29 08:53:16;;;;;;;9.93;4.10;;;;;;;15.44;50.49;95231.53;5064921;28;20167;-77
2021/04/29 08:55:42;;;;;;;8.50;4.77;;;;;;;16.17;48.88;95225.69;5059258;28;20043;-75
2021/04/29 08:58:11;;;;;;;6.53;4.50;;;;;;;17.51;45.91;95223.91;5067866;28;20419;-76
2021/04/29 09:00:37;;;;;;;8.18;4.30;;;;;;;19.37;42.05;95212.53;5055128;28;20087;-78
2021/04/29 09:03:04;;;;;;;8.90;4.50;;;;;;;18.99;41.83;95215.81;5051172;28;20021;-78
2021/04/29 09:05:34;;;;;;;6.60;3.95;;;;;;;18.19;41.73;95213.84;5058977;28;20037;-78
2021/04/29 09:08:08;;;;;;;8.27;4.82;;;;;;;17.72;42.81;95216.44;5059055;28;20578;-77
2021/04/29 09:10:37;;;;;;;;;;;;;;;18.68;41.77;95211.69;5067482;28;20048;-77
2021/04/29 09:13:22;;;;;;;8.60;4.90;;;;;;;18.28;42.54;95217.78;5056509;28;19982;-76
2021/04/29 09:15:50;;;;;;;11.93;4.18;;;;;;;16.89;45.19;95225.94;5060741;28;20116;-79
2021/04/29 09:18:18;;;;;;;8.82;4.30;;;;;;;16.22;46.28;95226.63;5063613;28;20036;-77
2021/04/29 09:20:57;;;;;;;8.00;4.40;;;;;;;17.03;45.15;95230.06;5067783;28;20040;-78
2021/04/29 09:23:37;;;;;;;10.77;5.00;;;;;;;17.08;45.34;95224.88;5069840;28;20033;-76
2021/04/29 09:26:06;;;;;;;10.90;5.22;;;;;;;18.24;43.50;95214.78;5067893;28;20029;-76
2021/04/29 09:28:48;;;;;;;7.45;4.78;;;;;;;17.16;44.45;95218.44;5058799;28;20070;-76
2021/04/29 09:31:17;;;;;;;8.90;4.97;;;;;;;17.02;44.54;95222.31;5065291;28;20044;-76
2021/04/29 09:33:44;;;;;;;8.07;4.67;;;;;;;17.37;43.76;95219.78;5059634;28;20033;-77
2021/04/29 09:36:28;;;;;;;9.02;5.05;;;;;;;16.22;46.54;95228.47;5081921;28;20043;-76
2021/04/29 09:39:08;;;;;;;7.43;4.80;;;;;;;15.40;49.04;95220.56;5062534;28;20048;-77
2021/04/29 09:41:47;;;;;;;8.63;5.60;;;;;;;15.79;48.23;95221.31;5060843;28;20186;-77
2021/04/29 09:44:18;;;;;;;8.57;5.27;;;;;;;16.72;46.22;95213.25;5062147;28;20028;-77
2021/04/29 09:46:55;;;;;;;7.80;4.53;;;;;;;17.42;45.66;95209.31;5061143;28;20040;-77
2021/04/29 09:49:32;;;;;;;10.20;5.77;;;;;;;16.58;46.05;95216.28;5053725;28;20833;-77
2021/04/29 09:51:59;;;;;;;7.60;5.27;;;;;;;16.32;47.42;95217.38;5046163;28;20182;-77
2021/04/29 09:54:36;;;;;;;13.90;5.23;;;;;;;17.38;45.13;95205.47;5052424;28;20420;-77
2021/04/29 09:57:10;;;;;;;9.30;5.37;;;;;;;17.43;44.52;95213.56;5055598;28;20119;-77
2021/04/29 09:59:45;;;;;;;9.37;5.77;;;;;;;17.11;45.17;95203.19;5059292;28;20037;-76
2021/04/29 10:02:13;;;;;;;10.38;5.57;;;;;;;17.01;45.17;95210.09;5035515;28;20029;-76
2021/04/29 10:04:40;;;;;;;8.50;4.97;;;;;;;17.51;43.26;95201.81;5043619;28;20025;-76
2021/04/29 10:07:09;;;;;;;11.43;5.50;;;;;;;16.58;44.84;95209.13;5054348;28;20569;-77
2021/04/29 10:09:35;;;;;;;8.38;5.50;;;;;;;16.39;45.15;95202.19;5052288;28;20028;-77
2021/04/29 10:12:07;;;;;;;8.95;6.43;;;;;;;17.04;43.97;95202.47;5057186;28;20038;-77
2021/04/29 10:14:36;;;;;;;7.85;5.18;;;;;;;17.17;43.58;95189.00;5042239;28;20045;-77
2021/04/29 10:17:04;;;;;;;8.98;5.78;;;;;;;18.03;40.91;95192.19;5044543;28;20043;-77
2021/04/29 10:19:30;;;;;;;9.43;5.50;;;;;;;19.34;39.55;95181.03;5066056;28;20037;-78
2021/04/29 10:21:59;;;;;;;8.82;4.97;;;;;;;19.86;38.42;95175.53;5068770;28;20452;-78
2021/04/29 10:24:25;;;;;;;10.68;4.97;;;;;;;19.79;37.91;95172.22;5050216;28;20493;-78
2021/04/29 10:27:00;;;;;;;9.48;4.90;;;;;;;19.76;37.34;95176.16;5060438;28;20092;-77
2021/04/29 10:29:26;;;;;;;10.38;5.00;;;;;;;18.76;38.03;95174.88;5055954;28;20036;-77
2021/04/29 10:31:57;;;;;;;8.45;5.30;;;;;;;18.64;38.09;95175.94;5057150;28;20445;-77
2021/04/29 10:34:24;;;;;;;8.43;4.88;;;;;;;18.06;39.06;95173.09;5055727;28;20034;-77
2021/04/29 10:36:51;;;;;;;7.90;4.55;;;;;;;18.79;37.75;95173.59;5069106;28;20070;-77
2021/04/29 10:39:23;;;;;;;9.43;4.65;;;;;;;18.16;38.71;95172.53;5059140;28;20036;-76
2021/04/29 10:42:01;;;;;;;5.18;3.10;;;;;;;19.55;37.68;95161.66;5064597;28;20025;-76
2021/04/29 10:44:27;;;;;;;11.70;5.55;;;;;;;20.35;34.28;95167.69;5069104;28;20032;-77
2021/04/29 10:47:03;;;;;;;8.10;4.72;;;;;;;20.38;35.36;95169.84;5066307;28;20024;-78
2021/04/29 10:49:30;;;;;;;8.85;5.05;;;;;;;18.77;37.56;95167.69;5047207;28;20536;-76
2021/04/29 10:52:00;;;;;;;8.48;5.00;;;;;;;17.97;38.98;95171.81;5057638;28;20119;-77
2021/04/29 10:54:26;;;;;;;9.88;5.47;;;;;;;17.21;40.85;95176.09;5048690;28;20614;-77
2021/04/29 10:57:08;;;;;;;10.40;5.32;;;;;;;17.07;42.65;95182.59;5059630;28;20740;-76
2021/04/29 10:59:49;;;;;;;10.73;5.93;;;;;;;16.86;43.80;95195.34;5049230;28;20051;-77
2021/04/29 11:02:28;;;;;;;8.82;5.57;;;;;;;16.36;43.70;95206.09;5049937;28;20036;-76
2021/04/29 11:04:55;;;;;;;7.32;4.90;;;;;;;15.85;45.93;95209.03;5051542;28;20554;-76
2021/04/29 11:07:23;;;;;;;9.00;5.20;;;;;;;15.15;51.67;95207.25;5047944;28;20548;-76
2021/04/29 11:10:03;;;;;;;8.23;5.07;;;;;;;15.13;53.01;95217.25;5049971;28;20037;-76
2021/04/29 11:12:56;;;;;;;36.97;18.90;;;;;;;14.79;55.17;95216.59;5068513;28;20066;-77
2021/04/29 11:15:33;;;;;;;9.90;6.53;;;;;;;15.21;55.13;95227.59;5064210;28;20028;-77
2021/04/29 11:18:09;;;;;;;10.27;6.40;;;;;;;14.58;57.42;95220.31;5068958;28;20043;-76
2021/04/29 11:20:41;;;;;;;11.27;7.40;;;;;;;14.76;55.91;95216.22;5047329;28;20551;-78
2021/04/29 11:23:07;;;;;;;9.30;6.57;;;;;;;14.30;57.91;95230.38;5057464;28;20521;-76
2021/04/29 11:25:36;;;;;;;11.47;6.63;;;;;;;14.34;59.08;95229.72;5052518;28;20059;-76
2021/04/29 11:28:02;;;;;;;9.40;6.10;;;;;;;14.68;58.11;95221.72;5066006;28;20042;-77
2021/04/29 11:30:28;;;;;;;9.60;6.73;;;;;;;14.18;58.65;95224.88;5052771;28;20087;-77
2021/04/29 11:32:56;;;;;;;10.47;6.67;;;;;;;14.61;57.33;95216.47;5056839;28;20091;-77
2021/04/29 11:35:27;;;;;;;9.23;5.73;;;;;;;14.94;55.72;95208.38;5042037;28;20032;-77
2021/04/29 11:37:55;;;;;;;9.03;5.70;;;;;;;14.91;56.02;95211.44;5050889;28;20651;-78